LA HONDA (LAH)

Elevation: 425' · SAN GREGORIO CR basin · Operator: CAL FIRE

Query executed Saturday at 4:40:46   clock

Provisional data, subject to change.
Select a sensor type for a plot of data.

Earlier

Date   /   Time   RAIN     TEMP     REL HUM     FUEL MS     FUEL TP     WIND SP     WIND DR     PEAK WS     PEAK WD     SOLAR R     BAT VOL    
(PDT)INCHES   DEG F   %   %   DEG F   MPH   DEG   MPH   DEG   W/M^2   VOLTS  
07/03/2015 04:00 0.00 56 97 19 56 1 260 3 228 0.00 12.7
07/03/2015 05:00 0.00 56 98 19 56 1 228 3 218 0.00 12.7
07/03/2015 06:00 0.00 56 98 20 56 1 261 2 349 1.00 12.7
07/03/2015 07:00 0.00 56 98 20 57 2 224 4 199 20.00 12.7
07/03/2015 08:00 0.00 59 98 21 62 2 196 4 51 114.00 13.3
07/03/2015 09:00 0.00 68 77 18 72 3 289 5 310 402.00 14.2
07/03/2015 10:00 0.00 74 63 15 80 3 252 5 299 576.00 13.7
07/03/2015 11:00 0.00 75 58 11 88 4 245 8 233 732.00 13.5
07/03/2015 12:00 0.00 77 55 9 93 4 269 7 226 849.00 13.5
07/03/2015 13:00 0.00 79 52 9 98 4 277 9 247 914.00 13.5
07/03/2015 14:00 0.00 81 49 8 99 4 274 7 309 930.00 13.5
07/03/2015 15:00 0.00 81 49 7 98 4 285 8 225 891.00 13.4
07/03/2015 16:00 0.00 81 49 7 95 4 252 8 236 795.00 13.4
07/03/2015 17:00 0.00 79 50 7 92 3 266 7 205 655.00 13.4
07/03/2015 18:00 0.00 71 58 6 76 3 255 6 228 457.00 13.6
07/03/2015 19:00 0.00 65 73 7 68 3 260 6 231 102.00 13.4
07/03/2015 20:00 0.00 61 81 8 61 2 284 5 232 38.00 13.2
07/03/2015 21:00 0.00 57 90 9 56 0 213 3 243 4.00 13.0
07/03/2015 22:00 0.00 57 95 10 55 2 94 3 103 0.00 12.9
07/03/2015 23:00 0.00 56 95 11 54 0 46 2 300 0.00 12.8
07/04/2015 00:00 0.00 55 97 13 54 1 253 2 84 0.00 12.8
07/04/2015 01:00 0.00 56 98 15 57 1 140 3 234 0.00 12.8
07/04/2015 02:00 0.00 55 98 17 56 2 110 3 50 0.00 12.8
07/04/2015 03:00 0.00 55 98 19 56 1 0 3 41 0.00 12.7
07/04/2015 04:00 0.00 54 98 20 55 3 53 4 50 0.00 12.7

Later | Latest

Warning! This data is preliminary and subject to revision.

Show LAH Map | 24 Hours LAH Data | Plot all LAH Sensors | Daily LAH Data | LAH Info